Latest Weather Observations for Mount Wellington

IDT60801

Issued at 2:31 am EST Sunday 31 May 2015 (issued every 30 minutes, with the page automatically refreshed every 10 minutes)

About weather observations | Map of weather stations | Latest weather observations for TAS | Other Formats
Station Details ID: 094087 Name: MOUNT WELLINGTON Lat: -42.90 Lon: 147.24 Height: 1260.47 m
Data from the previous 72 hours. | See also: Recent months at Mount Wellington
Date/Time
EST
Temp
°C
App
Temp
°C
Dew
Point
Rel
Hum
%
Delta-T
°C
Wind Press
QNH
hPa
Press
MSL
hPa
Rain
since 9 am
mm
Dir
 
Spd
km/h
Gust
km/h
Spd
kts
Gust
kts
31/02:30am 0.0 -15.8 -0.7 95 0.3 WNW 72 98 39 53 - - 1.6
31/02:00am -0.2 -16.3 -0.6 97 0.1 WNW 74 96 40 52 - - 1.6
31/01:30am -0.3 -14.8 -0.9 96 0.2 WNW 65 93 35 50 - - 1.6
31/01:00am -0.5 -13.5 -1.1 96 0.2 WNW 57 82 31 44 - - 1.6
31/12:45am -0.4 -13.4 -1.2 94 0.3 WNW 57 78 31 42 - - 1.6
31/12:43am -0.4 -13.8 -1.2 94 0.3 WNW 59 82 32 44 - - 1.6
31/12:30am -0.2 -16.8 -1.3 92 0.4 WNW 76 104 41 56 - - 1.6
31/12:00am -0.6 -14.4 -1.3 95 0.2 WNW 61 87 33 47 - - 1.6
 
Date/Time
EST
Temp
°C
App
Temp
°C
Dew
Point
Rel
Hum
%
Delta-T
°C
Wind Press
QNH
hPa
Press
MSL
hPa
Rain
since 9 am
mm
Dir
 
Spd
km/h
Gust
km/h
Spd
kts
Gust
kts
30/11:30pm -0.9 -13.4 -1.6 95 0.2 WNW 54 74 29 40 - - 1.6
30/11:00pm -0.8 -15.0 -2.1 91 0.4 WNW 63 83 34 45 - - 1.6
30/10:36pm -0.6 -15.5 -1.7 92 0.4 WNW 67 102 36 55 - - 1.6
30/10:30pm -0.9 -14.7 -1.7 94 0.3 WNW 61 82 33 44 - - 1.6
30/10:00pm -0.9 -14.0 -2.3 90 0.5 WNW 57 87 31 47 - - 1.6
30/09:30pm -1.2 -14.7 -2.5 91 0.4 WNW 59 82 32 44 - - 1.6
30/09:00pm -1.1 -14.7 -3.0 87 0.6 WNW 59 82 32 44 - - 1.6
30/08:30pm -1.3 -14.5 -2.7 90 0.4 WNW 57 80 31 43 - - 1.6
30/08:00pm -1.1 -14.6 -2.5 90 0.5 WNW 59 80 32 43 - - 1.6
30/07:30pm -1.1 -14.1 -2.7 89 0.5 WNW 56 78 30 42 - - 1.6
30/07:00pm -1.0 -15.7 -2.7 88 0.6 W 65 93 35 50 - - 1.6
30/06:30pm -1.1 -15.1 -3.1 86 0.7 W 61 96 33 52 - - 1.6
30/06:00pm -0.7 -15.8 -3.2 83 0.9 WNW 67 93 36 50 - - 1.6
30/05:30pm -0.8 -14.3 -2.2 90 0.5 WNW 59 89 32 48 - - 1.6
30/05:00pm -0.8 -13.8 -2.5 88 0.6 WNW 56 100 30 54 - - 1.6
30/04:38pm -0.3 -15.1 -3.2 81 1.0 W 65 113 35 61 - - 1.6
30/04:30pm -0.5 -14.8 -2.9 84 0.9 W 63 93 34 50 - - 1.6
30/04:17pm -0.5 -14.7 -1.8 91 0.5 W 63 95 34 51 - - 1.6
30/04:16pm -0.4 -15.0 -1.7 91 0.5 W 65 98 35 53 - - 1.6
30/04:00pm -0.5 -18.4 -2.2 88 0.6 W 82 119 44 64 - - 1.6
30/03:30pm -0.2 -18.1 -1.3 92 0.4 W 83 117 45 63 - - 1.6
30/03:00pm 0.1 -17.8 -1.3 90 0.5 W 83 107 45 58 - - 1.6
30/02:30pm 0.0 -19.5 -1.6 89 0.6 W 91 124 49 67 - - 1.6
30/02:00pm -0.1 -17.4 -0.7 96 0.2 W 80 113 43 61 - - 1.6
30/01:30pm 0.0 -18.6 -0.6 96 0.2 W 87 122 47 66 - - 1.6
30/01:00pm 0.4 -16.8 0.0 97 0.2 W 80 117 43 63 - - 1.6
30/12:52pm 0.3 -15.8 -0.1 97 0.2 W 74 100 40 54 - - 1.6
30/12:37pm 1.0 -12.5 0.7 98 0.1 WNW 61 82 33 44 - - 1.2
30/12:30pm 1.5 -13.0 1.2 98 0.1 WNW 67 96 36 52 - - 0.8
30/12:00pm 2.4 -12.0 2.0 97 0.2 NW 67 96 36 52 - - 0.2
30/11:30am 3.0 -10.9 2.7 98 0.1 NW 65 89 35 48 - - 0.2
30/11:00am 3.2 -12.0 2.9 98 0.1 NW 72 95 39 51 - - 0.2
30/10:30am 3.2 -11.4 2.9 98 0.1 NW 69 91 37 49 - - 0.0
30/10:00am 2.9 -11.8 2.6 98 0.1 NW 69 91 37 49 - - 0.0
30/09:30am 2.7 -12.2 2.4 98 0.1 NW 70 89 38 48 - - 0.0
30/09:05am 2.5 -11.9 2.2 98 0.1 NW 67 87 36 47 - - 0.0
30/09:00am 2.5 -11.9 2.2 98 0.1 NW 67 83 36 45 - - 1.8
30/08:30am 2.3 -11.0 2.0 98 0.1 NW 61 83 33 45 - - 1.8
30/08:00am 2.3 -10.6 2.0 98 0.1 NW 59 80 32 43 - - 1.8
30/07:33am 2.2 -11.8 1.9 98 0.1 NW 65 85 35 46 - - 1.8
30/07:30am 2.0 -12.1 1.7 98 0.1 NW 65 83 35 45 - - 1.8
30/07:00am 2.2 -10.7 1.9 98 0.1 NW 59 78 32 42 - - 1.8
30/06:30am 2.2 -10.3 1.9 98 0.1 NW 57 76 31 41 - - 1.8
30/06:24am 2.2 -10.3 1.9 98 0.1 NW 57 76 31 41 - - 1.8
30/06:00am 2.2 -10.7 1.9 98 0.1 WNW 59 78 32 42 - - 1.8
30/05:30am 2.1 -11.2 1.8 98 0.1 NW 61 82 33 44 - - 1.8
30/05:25am 2.1 -10.8 1.8 98 0.1 NW 59 82 32 44 - - 1.8
30/05:00am 2.1 -10.8 1.8 98 0.1 NW 59 74 32 40 - - 1.8
30/04:41am 2.1 -10.4 1.8 98 0.1 NW 57 78 31 42 - - 1.8
30/04:30am 2.0 -10.5 1.7 98 0.1 NW 57 72 31 39 - - 1.8
30/04:02am 1.9 -10.5 1.6 98 0.1 NW 56 76 30 41 - - 1.8
30/04:00am 1.9 -10.7 1.6 98 0.1 NW 57 76 31 41 - - 1.8
30/03:46am 1.9 -10.7 1.6 98 0.1 NW 57 76 31 41 - - 1.8
30/03:30am 1.9 -10.5 1.6 98 0.1 NW 56 72 30 39 - - 1.8
30/03:00am 1.9 -9.7 1.6 98 0.1 NW 52 70 28 38 - - 1.8
30/02:30am 2.0 -10.5 1.7 98 0.1 NW 57 80 31 43 - - 1.8
30/02:21am 1.9 -10.1 1.6 98 0.1 NW 54 76 29 41 - - 1.8
30/02:00am 1.8 -9.1 1.5 98 0.1 NW 48 65 26 35 - - 1.8
30/01:30am 1.8 -8.1 1.5 98 0.1 NW 43 61 23 33 - - 1.8
30/01:16am 1.7 -8.8 1.4 98 0.1 NW 46 67 25 36 - - 1.8
30/01:00am 1.7 -8.8 1.4 98 0.1 NW 46 61 25 33 - - 1.8
30/12:49am 1.7 -9.9 1.4 98 0.1 NW 52 78 28 42 - - 1.8
30/12:30am 1.6 -8.0 1.3 98 0.1 NW 41 57 22 31 - - 1.6
30/12:00am 1.6 -8.9 1.3 98 0.1 NW 46 59 25 32 - - 1.6
 
Date/Time
EST
Temp
°C
App
Temp
°C
Dew
Point
Rel
Hum
%
Delta-T
°C
Wind Press
QNH
hPa
Press
MSL
hPa
Rain
since 9 am
mm
Dir
 
Spd
km/h
Gust
km/h
Spd
kts
Gust
kts
29/11:30pm 1.5 -8.5 1.2 98 0.1 NW 43 57 23 31 - - 1.4
29/11:00pm 1.4 -9.2 1.1 98 0.1 NW 46 61 25 33 - - 1.2
29/10:30pm 1.2 -10.1 0.9 98 0.1 NW 50 65 27 35 - - 1.0
29/10:00pm 1.0 -9.6 0.7 98 0.1 NW 46 61 25 33 - - 0.8
29/09:30pm 0.9 -9.7 0.6 98 0.1 NW 46 57 25 31 - - 0.6
29/09:00pm 0.8 -10.2 0.5 98 0.1 NW 48 59 26 32 - - 0.4
29/08:30pm 0.7 -10.7 0.4 98 0.1 NW 50 65 27 35 - - 0.2
29/08:00pm 0.6 -10.5 0.3 98 0.1 WNW 48 61 26 33 - - 0.2
29/07:30pm 0.4 -10.7 0.1 98 0.1 WNW 48 61 26 33 - - 0.2
29/07:00pm 0.4 -10.3 0.1 98 0.1 NW 46 61 25 33 - - 0.2
29/06:30pm 0.3 -8.7 0.0 98 0.1 NW 37 48 20 26 - - 0.0
29/06:00pm 0.3 -10.0 0.0 98 0.1 NW 44 57 24 31 - - 0.0
29/05:30pm 0.2 -10.5 -0.1 98 0.1 WNW 46 59 25 32 - - 0.0
29/05:17pm 0.3 -10.8 0.0 98 0.1 WNW 48 70 26 38 - - 0.0
29/05:00pm 0.2 -10.5 -0.1 98 0.1 WNW 46 57 25 31 - - 0.0
29/04:50pm 0.2 -9.6 -0.1 98 0.1 WNW 41 61 22 33 - - 0.0
29/04:30pm 0.1 -10.1 -0.3 97 0.2 WNW 43 54 23 29 - - 0.0
29/04:00pm 0.1 -11.4 -0.3 97 0.2 WNW 50 70 27 38 - - 0.0
29/03:53pm 0.0 -10.4 -0.4 97 0.2 WNW 44 65 24 35 - - 0.0
29/03:30pm 0.0 -11.2 -0.4 97 0.2 WNW 48 63 26 34 - - 0.0
29/03:00pm 0.0 -12.3 -0.4 97 0.2 WNW 54 72 29 39 - - 0.0
29/02:31pm 0.0 -11.2 -0.4 97 0.2 WNW 48 69 26 37 - - 0.0
29/02:30pm 0.0 -11.2 -0.4 97 0.2 WNW 48 59 26 32 - - 0.0
29/02:00pm 0.2 -11.0 -0.8 93 0.4 W 48 67 26 36 - - 0.0
29/01:30pm 0.4 -12.4 -1.0 90 0.6 W 56 74 30 40 - - 0.0
29/01:00pm 0.2 -12.6 -1.4 89 0.6 W 56 78 30 42 - - 0.0
29/12:30pm 0.2 -13.6 -1.9 86 0.8 W 61 95 33 51 - - 0.0
29/12:00pm 0.1 -14.2 -2.3 84 0.9 W 63 91 34 49 - - 0.0
29/11:30am -0.3 -15.9 -2.2 87 0.7 W 70 93 38 50 - - 0.0
29/11:20am -0.1 -14.7 -1.8 88 0.6 W 65 107 35 58 - - 0.0
29/11:00am -0.4 -13.4 -2.6 85 0.8 WSW 56 80 30 43 - - 0.0
29/10:58am -0.6 -13.6 -2.6 86 0.7 WSW 56 80 30 43 - - 0.0
29/10:30am -1.3 -16.8 -3.0 88 0.5 WSW 69 95 37 51 - - 0.0
29/10:00am -1.1 -16.6 -3.0 87 0.6 W 69 87 37 47 - - 0.0
29/09:30am -1.7 -18.2 -3.4 88 0.5 W 74 113 40 61 - - 0.0
29/09:29am -1.6 -17.7 -3.3 88 0.5 W 72 113 39 61 - - 0.0
29/09:00am -2.1 -15.1 -2.9 94 0.2 W 56 78 30 42 - - 2.4
29/08:30am -2.1 -13.2 -2.9 94 0.2 W 46 74 25 40 - - 2.4
29/08:01am -2.1 -14.1 -3.7 89 0.5 W 50 70 27 38 - - 2.4
29/08:00am -2.1 -14.4 -3.5 90 0.4 W 52 70 28 38 - - 2.4
29/07:49am -2.1 -14.4 -3.2 92 0.3 W 52 69 28 37 - - 2.4
29/07:30am -2.6 -18.3 -3.4 94 0.2 WSW 70 95 38 51 - - 2.4
29/07:00am -2.8 -18.4 -4.2 90 0.4 WSW 69 91 37 49 - - 2.4
29/06:30am -2.7 -18.5 -3.8 92 0.3 WSW 70 93 38 50 - - 2.4
29/06:00am -2.8 -18.6 -3.6 94 0.2 W 70 95 38 51 - - 2.4
29/05:30am -2.8 -18.0 -3.5 95 0.1 W 67 91 36 49 - - 2.4
29/05:00am -3.0 -17.5 -4.1 92 0.2 W 63 89 34 48 - - 2.4
29/04:50am -3.0 -17.5 -4.1 92 0.2 W 63 93 34 50 - - 2.4
29/04:30am -2.8 -14.7 -3.3 96 0.0 W 50 70 27 38 - - 2.4
29/04:25am -2.6 -14.5 -3.1 96 0.1 WNW 50 70 27 38 - - 2.4
29/04:15am -2.4 -14.7 -2.9 96 0.1 WNW 52 72 28 39 - - 2.4
29/04:00am -2.4 -17.1 -2.9 96 0.1 WNW 65 87 35 47 - - 2.4
29/03:56am -2.4 -16.7 -2.9 96 0.1 WNW 63 87 34 47 - - 2.4
29/03:36am -2.2 -13.7 -2.7 96 0.1 WNW 48 70 26 38 - - 2.2
29/03:30am -2.1 -13.2 -2.6 96 0.1 WNW 46 63 25 34 - - 2.2
29/03:01am -2.2 -14.4 -2.7 96 0.1 WNW 52 70 28 38 - - 2.2
29/03:00am -2.2 -14.0 -2.7 96 0.1 WNW 50 67 27 36 - - 2.2
29/02:30am -2.3 -15.3 -2.8 96 0.1 WNW 56 80 30 43 - - 2.2
29/02:00am -2.2 -15.4 -2.9 95 0.1 W 57 83 31 45 - - 2.2
29/01:52am -2.1 -15.1 -2.6 96 0.1 W 56 83 30 45 - - 2.2
29/01:30am -1.7 -13.9 -2.1 97 0.1 WNW 52 69 28 37 - - 2.2
29/01:00am -1.7 -15.6 -2.1 97 0.1 WNW 61 76 33 41 - - 2.2
29/12:30am -1.7 -16.7 -2.3 96 0.1 WNW 67 91 36 49 - - 2.2
29/12:00am -1.2 -14.2 -1.6 97 0.1 WNW 57 76 31 41 - - 2.2
 
Date/Time
EST
Temp
°C
App
Temp
°C
Dew
Point
Rel
Hum
%
Delta-T
°C
Wind Press
QNH
hPa
Press
MSL
hPa
Rain
since 9 am
mm
Dir
 
Spd
km/h
Gust
km/h
Spd
kts
Gust
kts
28/11:30pm -1.0 -13.4 -1.4 97 0.1 WNW 54 74 29 40 - - 2.2
28/11:26pm -0.9 -13.3 -1.3 97 0.1 WNW 54 74 29 40 - - 2.2
28/11:00pm -0.9 -13.9 -1.3 97 0.1 WNW 57 70 31 38 - - 2.2
28/10:30pm -0.7 -13.1 -1.1 97 0.1 WNW 54 72 29 39 - - 2.2
28/10:05pm -0.6 -13.4 -1.0 97 0.1 WNW 56 76 30 41 - - 2.2
28/10:00pm -0.5 -13.4 -0.9 97 0.1 WNW 57 76 31 41 - - 2.2
28/09:32pm -0.3 -13.0 -0.6 98 0.1 WNW 56 74 30 40 - - 2.2
28/09:30pm -0.3 -13.2 -0.6 98 0.1 WNW 57 74 31 40 - - 2.2
28/09:00pm 0.0 -11.5 -0.3 98 0.1 WNW 50 69 27 37 - - 2.2
28/08:30pm 0.1 -10.3 -0.2 98 0.1 WNW 44 61 24 33 - - 2.2
28/08:10pm 0.3 -9.9 0.0 98 0.1 W 43 61 23 33 - - 2.2
28/08:00pm 0.3 -9.5 0.0 98 0.1 WNW 41 56 22 30 - - 2.2
28/07:30pm 0.9 -9.7 0.6 98 0.1 WNW 46 67 25 36 - - 2.0
28/07:22pm 1.1 -8.6 0.8 98 0.1 WNW 41 65 22 35 - - 2.0
28/07:00pm 1.3 -8.9 1.0 98 0.1 NW 44 59 24 32 - - 2.0
28/06:34pm 1.1 -9.1 0.8 98 0.1 WNW 44 65 24 35 - - 2.0
28/06:30pm 1.0 -9.0 0.7 98 0.1 WNW 43 56 23 30 - - 2.0
28/06:02pm 1.4 -6.5 1.1 98 0.1 W 32 50 17 27 - - 2.0
28/06:00pm 1.5 -6.0 1.2 98 0.1 W 30 43 16 23 - - 2.0
28/05:30pm 2.1 -6.3 1.8 98 0.1 WNW 35 46 19 25 - - 1.8
28/05:00pm 2.2 -9.0 1.8 97 0.2 NW 50 65 27 35 - - 1.6
28/04:54pm 2.2 -9.8 1.8 97 0.2 NW 54 78 29 42 - - 1.6
28/04:40pm 2.4 -10.9 2.0 97 0.2 NW 61 93 33 50 - - 1.4
28/04:33pm 2.9 -8.6 2.5 97 0.2 WNW 52 76 28 41 - - 1.0
28/04:30pm 3.0 -8.1 2.6 97 0.2 NW 50 67 27 36 - - 0.8
28/04:00pm 3.4 -8.9 3.0 97 0.2 NW 57 76 31 41 - - 0.6
28/03:52pm 3.4 -7.6 3.1 98 0.1 NW 50 69 27 37 - - 0.6
28/03:30pm 3.7 -7.2 3.4 98 0.1 NW 50 65 27 35 - - 0.6
28/03:12pm 3.5 -6.3 3.2 98 0.1 NW 44 63 24 34 - - 0.6
28/03:00pm 3.4 -8.0 3.1 98 0.1 NW 52 69 28 37 - - 0.6
28/02:37pm 3.3 -8.1 3.0 98 0.1 NW 52 70 28 38 - - 0.6
28/02:30pm 3.3 -8.8 3.0 98 0.1 NW 56 72 30 39 - - 0.6
28/02:00pm 3.1 -9.1 2.7 97 0.2 NW 56 76 30 41 - - 0.6
28/01:58pm 3.0 -9.2 2.6 97 0.2 NW 56 76 30 41 - - 0.6
28/01:30pm 3.7 -7.2 3.3 97 0.2 NW 50 65 27 35 - - 0.2
28/01:04pm 4.3 -5.4 2.8 90 0.7 NW 43 61 23 33 - - 0.0
28/01:00pm 4.5 -5.2 3.0 90 0.7 NW 43 57 23 31 - - 0.0
28/12:42pm 4.7 -5.5 3.0 89 0.8 NW 46 67 25 36 - - 0.0
28/12:30pm 5.3 -5.7 3.0 85 1.0 NW 50 65 27 35 - - 0.0
28/12:06pm 4.5 -7.3 2.8 89 0.8 NNW 54 76 29 41 - - 0.0
28/12:00pm 4.4 -7.4 2.9 90 0.7 NNW 54 70 29 38 - - 0.0
28/11:31am 4.3 -7.1 2.7 89 0.7 NNW 52 70 28 38 - - 0.0
28/11:30am 4.3 -6.8 2.7 89 0.7 NNW 50 67 27 36 - - 0.0
28/11:03am 4.1 -7.0 2.3 88 0.8 NNW 50 69 27 37 - - 0.0
28/11:00am 4.2 -7.3 2.2 87 0.9 NNW 52 69 28 37 - - 0.0
28/10:30am 4.4 -5.5 2.6 88 0.8 NW 44 67 24 36 - - 0.0
28/10:25am 4.3 -5.7 2.3 87 0.9 NW 44 67 24 36 - - 0.0
28/10:00am 4.3 -5.6 2.5 88 0.8 NW 44 57 24 31 - - 0.0
28/09:30am 3.9 -6.4 2.4 90 0.7 NW 46 59 25 32 - - 0.0
28/09:09am 4.0 -6.8 2.2 88 0.8 NW 48 67 26 36 - - 0.0
28/09:00am 3.9 -7.2 2.3 89 0.7 NW 50 67 27 36 - - 0.0
28/08:38am 3.4 -8.2 1.9 90 0.6 NW 52 80 28 43 - - 0.0
28/08:30am 3.3 -8.3 2.0 91 0.6 NW 52 69 28 37 - - 0.0
28/08:06am 2.9 -7.5 1.9 93 0.4 NW 46 67 25 36 - - 0.0
28/08:00am 2.7 -7.1 2.0 95 0.3 NW 43 57 23 31 - - 0.0
28/07:30am 2.6 -8.2 1.9 95 0.3 NW 48 63 26 34 - - 0.0
28/07:01am 2.6 -7.8 2.0 96 0.3 NW 46 65 25 35 - - 0.0
28/07:00am 2.6 -8.2 2.0 96 0.3 NW 48 65 26 35 - - 0.0
28/06:30am 2.6 -9.9 2.0 96 0.3 NW 57 72 31 39 - - 0.0
28/06:00am 2.6 -10.2 2.3 98 0.1 NW 59 74 32 40 - - 0.0
28/05:30am 2.9 -9.5 2.6 98 0.1 NW 57 72 31 39 - - 0.0
28/05:09am 3.1 -8.3 2.8 98 0.1 NW 52 70 28 38 - - 0.0
28/05:00am 3.2 -8.6 2.9 98 0.1 NW 54 70 29 38 - - 0.0
28/04:30am 3.3 -7.7 3.0 98 0.1 NW 50 65 27 35 - - 0.0
28/04:00am 3.2 -6.5 2.8 97 0.2 NW 43 57 23 31 - - 0.0
28/03:30am 3.2 -6.7 2.8 97 0.2 NW 44 65 24 35 - - 0.0
28/03:17am 3.4 -6.3 3.0 97 0.2 NW 43 63 23 34 - - 0.0
28/03:00am 3.4 -5.9 3.0 97 0.2 NW 41 56 22 30 - - 0.0

Other Formats:

Comma delimited format used in spreadsheet applications
http://www.bom.gov.au/fwo/IDT60801/IDT60801.95979.axf

JavaScript Object Notation format (JSON) in row-major order
http://www.bom.gov.au/fwo/IDT60801/IDT60801.95979.json